Time;durP1;ratioP1;P1;durP2;ratioP2;P2;SDS_P1;SDS_P2;PMS_P1;PMS_P2;Temp;Humidity;BMP_temperature;BMP_pressure;BME280_temperature;BME280_humidity;BME280_pressure;Samples;Min_cycle;Max_cycle;Signal;HPM_P1;HPM_P2
2022/10/16 00:01:23;;;;;;;2.53;1.20;;;;;;;18.37;85.61;100606.09;6252158;22;20020;-66
2022/10/16 00:03:51;;;;;;;11.13;1.60;;;;;;;18.27;84.93;100605.88;6251245;22;20047;-66
2022/10/16 00:06:20;;;;;;;5.30;1.40;;;;;;;18.25;85.90;100599.84;6277245;22;20119;-66
2022/10/16 00:08:48;;;;;;;6.18;1.88;;;;;;;18.14;85.36;100605.22;6251527;22;20022;-66
2022/10/16 00:11:21;;;;;;;4.45;1.30;;;;;;;18.07;85.19;100598.66;6278550;22;20028;-66
2022/10/16 00:13:51;;;;;;;4.72;1.40;;;;;;;18.10;85.93;100609.09;6278132;22;20050;-66
2022/10/16 00:16:19;;;;;;;4.50;1.40;;;;;;;18.08;86.52;100605.88;6250166;22;20024;-66
2022/10/16 00:18:46;;;;;;;3.13;1.20;;;;;;;17.98;85.83;100624.78;6278734;22;20012;-65
2022/10/16 00:21:19;;;;;;;3.30;1.30;;;;;;;18.12;86.64;100638.22;6278475;22;20304;-65
2022/10/16 00:23:46;;;;;;;5.28;1.10;;;;;;;18.08;86.28;100633.75;6250513;22;20026;-66
2022/10/16 00:26:16;;;;;;;4.82;1.05;;;;;;;18.19;86.15;100620.81;6277428;22;20018;-67
2022/10/16 00:28:46;;;;;;;2.38;1.10;;;;;;;18.15;86.17;100634.69;6278839;22;20455;-66
2022/10/16 00:31:14;;;;;;;3.65;1.20;;;;;;;18.05;86.31;100624.13;6226713;22;20016;-65
2022/10/16 00:33:42;;;;;;;6.35;1.17;;;;;;;18.23;86.70;100630.06;6278669;22;20020;-66
2022/10/16 00:36:12;;;;;;;3.35;1.27;;;;;;;18.13;86.51;100627.88;6251542;22;20015;-67
2022/10/16 00:38:39;;;;;;;;;;;;;;;18.09;86.30;100638.13;6252419;22;20019;-65
2022/10/16 00:41:10;;;;;;;2.92;1.27;;;;;;;18.06;86.65;100641.66;6288056;22;19922;-65
2022/10/16 00:43:38;;;;;;;;;;;;;;;17.91;86.31;100638.56;6251926;22;20019;-66
2022/10/16 00:46:14;;;;;;;2.50;1.10;;;;;;;18.19;86.98;100638.38;6225582;22;19915;-66
2022/10/16 00:48:45;;;;;;;3.97;1.10;;;;;;;18.13;86.65;100650.19;6279057;22;20012;-65
2022/10/16 00:51:13;;;;;;;4.97;1.73;;;;;;;18.10;86.33;100646.13;6201168;22;20020;-65
2022/10/16 00:53:40;;;;;;;4.63;1.58;;;;;;;18.15;86.32;100648.63;6225535;22;20018;-65
2022/10/16 00:56:07;;;;;;;6.18;1.30;;;;;;;18.01;86.03;100633.59;6223648;22;20022;-67
2022/10/16 00:58:35;;;;;;;2.35;1.10;;;;;;;18.21;85.94;100638.00;6250704;22;20030;-66
2022/10/16 01:01:02;;;;;;;4.55;1.15;;;;;;;18.17;85.78;100635.13;6250419;22;20049;-66
2022/10/16 01:03:33;;;;;;;5.15;1.38;;;;;;;18.19;85.37;100634.75;6224391;22;20020;-65
2022/10/16 01:06:24;;;;;;;4.85;1.27;;;;;;;17.98;85.54;100629.53;6277247;22;20347;-66
2022/10/16 01:09:09;;;;;;;3.47;1.00;;;;;;;17.87;85.93;100631.28;6252046;22;20034;-66
2022/10/16 01:11:55;;;;;;;;;;;;;;;17.90;86.49;100642.50;6278153;22;20011;-66
2022/10/16 01:14:45;;;;;;;6.53;1.30;;;;;;;17.74;85.09;100641.75;6277544;22;19915;-66
2022/10/16 01:17:18;;;;;;;3.00;1.13;;;;;;;18.06;87.07;100648.06;6250851;22;20098;-66
2022/10/16 01:19:58;;;;;;;3.13;1.30;;;;;;;18.13;85.65;100656.56;6278277;22;20016;-66
2022/10/16 01:22:33;;;;;;;2.72;0.93;;;;;;;18.11;85.52;100660.88;6277584;22;20018;-66
2022/10/16 01:25:05;;;;;;;6.03;1.20;;;;;;;18.06;85.28;100658.38;6277511;22;20022;-66
2022/10/16 01:27:36;;;;;;;4.47;1.20;;;;;;;18.20;85.86;100655.91;6250896;22;20012;-66
2022/10/16 01:30:05;;;;;;;5.70;1.30;;;;;;;18.33;85.51;100654.59;6277821;22;20023;-66
2022/10/16 01:32:38;;;;;;;2.25;1.05;;;;;;;18.44;84.87;100661.22;6277918;22;20038;-65
2022/10/16 01:35:12;;;;;;;6.40;1.30;;;;;;;18.29;83.95;100662.88;6277584;22;20023;-65
2022/10/16 01:38:12;;;;;;;3.30;1.10;;;;;;;18.27;83.53;100670.00;6250341;22;20016;-65
2022/10/16 01:40:45;;;;;;;4.85;1.15;;;;;;;18.36;84.82;100651.09;6250731;22;20123;-67
2022/10/16 01:43:15;;;;;;;2.67;1.00;;;;;;;18.19;83.76;100657.88;6250474;22;20023;-66
2022/10/16 01:45:44;;;;;;;2.95;0.88;;;;;;;18.17;83.71;100653.84;6224877;22;20023;-66
2022/10/16 01:48:14;;;;;;;3.50;1.00;;;;;;;18.26;84.05;100644.09;6225143;22;20023;-66
2022/10/16 01:50:44;;;;;;;5.95;0.98;;;;;;;18.25;84.68;100652.84;6226041;22;20336;-66
2022/10/16 01:53:13;;;;;;;4.35;0.90;;;;;;;18.21;84.36;100655.53;6250514;22;20019;-66
2022/10/16 01:55:44;;;;;;;5.50;1.00;;;;;;;18.17;83.62;100653.84;6249902;22;20023;-66
2022/10/16 01:58:13;;;;;;;3.35;0.90;;;;;;;18.08;83.72;100656.06;6251356;22;20019;-65
2022/10/16 02:00:43;;;;;;;3.97;0.80;;;;;;;18.06;84.46;100641.66;6251048;22;20020;-65
2022/10/16 02:03:11;;;;;;;;;;;;;;;18.01;83.24;100659.47;6278488;22;20012;-65
2022/10/16 02:05:55;;;;;;;2.25;0.90;;;;;;;17.69;84.86;100664.34;6223961;22;20140;-65
2022/10/16 02:08:24;;;;;;;2.92;1.08;;;;;;;17.90;85.79;100658.44;6277082;22;20019;-65
2022/10/16 02:10:51;;;;;;;1.83;0.77;;;;;;;17.80;85.40;100651.44;6250308;22;20015;-66
2022/10/16 02:13:26;;;;;;;3.67;0.95;;;;;;;17.91;86.05;100648.91;6225120;22;20031;-66
2022/10/16 02:15:53;;;;;;;3.53;0.93;;;;;;;18.14;85.98;100660.97;6276550;22;20020;-66
2022/10/16 02:18:21;;;;;;;2.85;0.73;;;;;;;18.09;84.80;100664.03;6277582;22;20584;-66
2022/10/16 02:21:00;;;;;;;2.00;0.80;;;;;;;18.13;84.46;100670.50;6277462;22;20046;-66
2022/10/16 02:23:43;;;;;;;5.60;0.63;;;;;;;18.23;84.22;100657.97;6276570;22;20023;-66
2022/10/16 02:26:13;;;;;;;2.65;0.80;;;;;;;18.21;83.85;100654.72;6249958;22;20026;-66
2022/10/16 02:28:52;;;;;;;2.65;0.93;;;;;;;18.34;84.21;100662.56;6250880;22;20019;-65
2022/10/16 02:31:26;;;;;;;5.03;1.10;;;;;;;18.31;82.83;100668.06;6250387;22;20024;-66
2022/10/16 02:33:56;;;;;;;2.05;0.90;;;;;;;18.40;83.27;100672.31;6250399;22;20016;-66
2022/10/16 02:36:23;;;;;;;3.35;0.90;;;;;;;18.43;82.84;100665.22;6225210;22;20091;-65
2022/10/16 02:38:51;;;;;;;6.72;0.80;;;;;;;18.36;82.07;100671.38;6250233;22;20447;-66
2022/10/16 02:41:21;;;;;;;1.38;0.50;;;;;;;18.42;81.80;100669.16;6223233;22;20616;-65
2022/10/16 02:43:49;;;;;;;2.97;0.80;;;;;;;18.39;81.81;100662.31;6188018;23;20055;-66
2022/10/16 02:46:17;;;;;;;4.40;0.82;;;;;;;18.15;80.33;100667.34;6219878;23;20020;-67
2022/10/16 02:48:44;;;;;;;1.45;0.60;;;;;;;18.28;82.14;100671.59;6195359;23;20023;-66
2022/10/16 02:51:12;;;;;;;4.85;1.17;;;;;;;18.23;81.64;100683.88;6219766;23;20020;-66
2022/10/16 02:53:39;;;;;;;4.03;0.80;;;;;;;18.24;82.41;100679.91;6220288;23;20412;-67
2022/10/16 02:56:07;;;;;;;2.83;0.50;;;;;;;18.35;81.20;100691.28;6245546;23;20039;-66
2022/10/16 02:58:34;;;;;;;4.30;1.15;;;;;;;18.30;81.44;100686.00;6246885;23;20444;-66
2022/10/16 03:01:01;;;;;;;2.90;0.77;;;;;;;18.34;81.04;100682.09;6246158;23;20020;-65
2022/10/16 03:03:29;;;;;;;1.30;0.60;;;;;;;18.11;80.62;100694.34;6219188;23;20024;-66
2022/10/16 03:05:56;;;;;;;5.22;0.90;;;;;;;18.28;81.26;100696.72;6246566;23;20389;-66
2022/10/16 03:08:25;;;;;;;3.78;0.70;;;;;;;18.04;78.69;100694.19;6195745;23;20017;-66
2022/10/16 03:10:52;;;;;;;1.17;0.50;;;;;;;18.16;80.86;100692.09;6248040;23;20024;-65
2022/10/16 03:13:20;;;;;;;2.72;0.75;;;;;;;18.27;81.56;100693.09;6247442;23;20494;-66
2022/10/16 03:15:47;;;;;;;2.10;0.63;;;;;;;18.22;82.49;100689.81;6221269;23;20020;-66
2022/10/16 03:18:15;;;;;;;3.70;0.80;;;;;;;18.36;82.05;100690.13;6221600;23;20016;-65
2022/10/16 03:20:42;;;;;;;3.25;0.93;;;;;;;17.97;78.99;100703.97;6195957;23;20027;-65
2022/10/16 03:23:10;;;;;;;2.90;0.70;;;;;;;18.05;82.14;100698.56;6221507;23;20016;-65
2022/10/16 03:25:37;;;;;;;4.55;0.70;;;;;;;18.30;82.63;100699.94;6247350;23;20022;-66
2022/10/16 03:28:05;;;;;;;3.28;0.80;;;;;;;18.21;82.29;100696.56;6248728;23;20020;-66
2022/10/16 03:30:32;;;;;;;6.10;0.80;;;;;;;18.18;82.90;100683.34;6221418;23;20020;-66
2022/10/16 03:32:59;;;;;;;3.22;0.80;;;;;;;18.25;82.20;100663.97;6218445;23;20028;-65
2022/10/16 03:35:27;;;;;;;2.15;0.70;;;;;;;17.97;80.26;100661.38;6195972;23;20031;-67
2022/10/16 03:37:54;;;;;;;2.95;0.77;;;;;;;18.07;82.76;100654.41;6220826;23;20020;-66
2022/10/16 03:40:21;;;;;;;2.10;0.60;;;;;;;17.99;81.53;100661.84;6247734;23;20317;-66
2022/10/16 03:42:48;;;;;;;1.67;0.63;;;;;;;17.84;82.99;100663.47;6222368;23;20031;-66
2022/10/16 03:45:16;;;;;;;4.15;0.90;;;;;;;17.71;83.41;100675.91;6277073;22;20026;-68
2022/10/16 03:47:43;;;;;;;6.78;0.80;;;;;;;17.71;83.48;100678.69;6226762;22;20016;-65
2022/10/16 03:50:11;;;;;;;4.38;0.85;;;;;;;17.42;81.45;100687.50;6279039;22;20018;-66
2022/10/16 03:52:38;;;;;;;2.13;0.55;;;;;;;17.70;84.61;100681.84;6278656;22;20015;-65
2022/10/16 03:55:06;;;;;;;2.08;0.55;;;;;;;17.75;84.50;100679.59;6278526;22;20022;-65
2022/10/16 03:57:33;;;;;;;3.13;0.73;;;;;;;17.55;80.68;100691.03;6277901;22;20023;-67
2022/10/16 04:00:01;;;;;;;4.18;0.70;;;;;;;17.72;82.35;100702.59;6278800;22;20071;-66
2022/10/16 04:02:38;;;;;;;2.03;0.52;;;;;;;17.16;83.35;100690.00;6278641;22;20019;-65
2022/10/16 04:05:06;;;;;;;3.25;0.77;;;;;;;17.56;84.59;100687.06;6200214;22;20455;-66
2022/10/16 04:07:33;;;;;;;4.00;0.75;;;;;;;17.47;84.76;100678.13;6224471;22;20024;-66
2022/10/16 04:10:00;;;;;;;2.30;0.70;;;;;;;17.52;84.00;100691.75;6252199;22;20012;-65
2022/10/16 04:12:28;;;;;;;3.08;0.90;;;;;;;17.94;84.38;100690.78;6277542;22;20401;-65
2022/10/16 04:14:55;;;;;;;3.72;0.75;;;;;;;18.07;83.51;100691.47;6278946;22;20012;-66
2022/10/16 04:17:22;;;;;;;3.70;0.60;;;;;;;18.10;82.55;100696.31;6249910;22;20027;-66
2022/10/16 04:19:50;;;;;;;1.95;0.60;;;;;;;17.92;81.70;100697.91;6251364;22;20015;-66
2022/10/16 04:22:17;;;;;;;2.35;0.73;;;;;;;17.78;80.34;100692.00;6277610;22;20019;-66
2022/10/16 04:24:44;;;;;;;3.05;0.57;;;;;;;17.84;84.08;100696.94;6278846;22;20320;-66
2022/10/16 04:27:12;;;;;;;4.60;0.75;;;;;;;17.91;83.09;100705.44;6225804;22;20353;-66
2022/10/16 04:29:39;;;;;;;5.05;0.85;;;;;;;18.14;83.60;100708.38;6278870;22;20022;-66
2022/10/16 04:32:08;;;;;;;4.32;0.60;;;;;;;18.18;82.78;100708.44;6249990;22;20031;-65
2022/10/16 04:34:37;;;;;;;1.52;0.40;;;;;;;18.04;82.37;100716.47;6251353;22;20020;-65
2022/10/16 04:37:05;;;;;;;4.95;0.80;;;;;;;17.73;81.65;100732.06;6277277;22;20431;-65
2022/10/16 04:39:32;;;;;;;3.25;0.90;;;;;;;17.79;85.30;100735.41;6277947;22;20011;-65
2022/10/16 04:42:00;;;;;;;2.30;0.60;;;;;;;17.86;83.20;100738.34;6249480;22;20020;-66
2022/10/16 04:44:27;;;;;;;2.67;0.60;;;;;;;17.84;83.09;100738.72;6225694;22;20023;-65
2022/10/16 04:46:54;;;;;;;5.28;0.80;;;;;;;17.74;82.04;100738.47;6277699;22;20019;-65
2022/10/16 04:49:21;;;;;;;1.77;0.52;;;;;;;17.76;84.71;100738.91;6278040;22;20012;-65
2022/10/16 04:51:49;;;;;;;4.03;0.93;;;;;;;17.84;83.90;100754.63;6249870;22;20024;-66
2022/10/16 04:54:16;;;;;;;2.20;0.60;;;;;;;17.81;82.92;100758.97;6277959;22;20022;-66
2022/10/16 04:56:47;;;;;;;4.50;0.60;;;;;;;17.95;83.89;100758.50;6277390;22;20027;-66
2022/10/16 04:59:14;;;;;;;5.35;1.00;;;;;;;17.59;84.22;100764.34;6251983;22;20012;-67
2022/10/16 05:01:42;;;;;;;2.65;0.60;;;;;;;17.24;82.54;100757.81;6277711;22;20022;-66
2022/10/16 05:04:10;;;;;;;3.33;0.88;;;;;;;17.15;85.29;100773.88;6250730;22;20308;-66
2022/10/16 05:06:38;;;;;;;3.58;0.60;;;;;;;17.08;86.87;100777.28;6249339;22;20027;-66
2022/10/16 05:09:05;;;;;;;4.60;0.60;;;;;;;17.18;86.18;100768.41;6250412;22;20019;-67
2022/10/16 05:11:33;;;;;;;4.38;0.60;;;;;;;17.69;87.25;100772.16;6278696;22;20015;-65
2022/10/16 05:14:01;;;;;;;4.03;0.88;;;;;;;17.66;84.17;100770.13;6251672;22;20499;-66
2022/10/16 05:16:30;;;;;;;4.00;0.88;;;;;;;17.59;85.36;100765.16;6277244;22;20034;-66
2022/10/16 05:18:57;;;;;;;2.22;0.60;;;;;;;17.99;85.34;100776.91;6277834;22;20020;-66
2022/10/16 05:21:44;;;;;;;2.55;0.80;;;;;;;18.15;84.24;100795.59;6276502;22;20020;-66
2022/10/16 05:24:12;;;;;;;5.00;0.65;;;;;;;18.15;83.98;100799.19;6276422;22;20121;-66
2022/10/16 05:26:39;;;;;;;4.22;1.00;;;;;;;18.16;83.59;100800.00;6276992;22;20015;-66
2022/10/16 05:29:06;;;;;;;3.45;0.88;;;;;;;18.21;83.79;100799.72;6251426;22;20019;-65
2022/10/16 05:31:34;;;;;;;3.78;0.65;;;;;;;18.28;82.94;100805.47;6277823;22;20020;-65
2022/10/16 05:34:02;;;;;;;3.15;0.60;;;;;;;18.19;82.55;100802.88;6278143;22;20019;-66
2022/10/16 05:36:29;;;;;;;2.40;0.80;;;;;;;18.21;82.89;100792.16;6276755;22;20031;-65
2022/10/16 05:38:56;;;;;;;2.63;0.77;;;;;;;18.18;82.90;100792.91;6278226;22;20015;-65
2022/10/16 05:41:25;;;;;;;2.92;0.60;;;;;;;18.21;82.74;100791.34;6277656;22;20020;-66
2022/10/16 05:43:55;;;;;;;4.93;0.82;;;;;;;18.07;82.04;100788.22;6277808;22;20016;-66
2022/10/16 05:46:22;;;;;;;3.03;0.80;;;;;;;18.12;83.35;100796.31;6277151;22;20016;-66
2022/10/16 05:48:53;;;;;;;2.50;0.80;;;;;;;18.05;83.68;100804.50;6278253;22;20025;-66
2022/10/16 05:51:20;;;;;;;3.80;0.80;;;;;;;17.66;81.96;100801.53;6224322;22;20019;-65
2022/10/16 05:53:47;;;;;;;5.32;0.82;;;;;;;17.72;84.75;100790.94;6251358;22;20015;-65
2022/10/16 05:56:15;;;;;;;4.13;0.82;;;;;;;17.79;84.66;100791.94;6224580;22;20015;-64
2022/10/16 05:58:44;;;;;;;3.65;0.98;;;;;;;17.55;85.41;100799.66;6251131;22;20065;-65
2022/10/16 06:01:13;;;;;;;3.55;0.82;;;;;;;17.78;85.60;100800.66;6277331;22;20018;-65
2022/10/16 06:03:41;;;;;;;2.40;0.90;;;;;;;17.93;84.96;100803.44;6225709;22;20023;-64
2022/10/16 06:06:13;;;;;;;3.80;0.80;;;;;;;18.11;84.33;100795.53;6225225;22;20050;-64
2022/10/16 06:08:42;;;;;;;3.60;0.70;;;;;;;18.08;83.51;100798.22;6277895;22;20377;-67
2022/10/16 06:11:12;;;;;;;3.25;0.73;;;;;;;18.06;83.99;100792.19;6250115;22;20023;-67
2022/10/16 06:13:41;;;;;;;2.20;0.68;;;;;;;18.10;83.77;100795.88;6278148;22;20016;-67
2022/10/16 06:16:10;;;;;;;2.38;1.08;;;;;;;17.91;82.80;100791.03;6276847;22;20016;-66
2022/10/16 06:18:38;;;;;;;3.30;0.90;;;;;;;17.95;83.91;100797.50;6250085;22;20026;-66
2022/10/16 06:21:10;;;;;;;3.22;1.10;;;;;;;17.90;83.95;100801.34;6277242;22;20019;-65
2022/10/16 06:23:37;;;;;;;4.47;0.95;;;;;;;17.51;82.69;100807.91;6249049;22;20023;-65
2022/10/16 06:26:12;;;;;;;5.40;1.05;;;;;;;17.74;85.66;100796.97;6223046;22;20023;-66
2022/10/16 06:28:40;;;;;;;3.78;0.93;;;;;;;17.84;84.53;100796.41;6249988;22;20067;-66
2022/10/16 06:31:09;;;;;;;3.55;1.17;;;;;;;17.70;84.52;100805.25;6277528;22;20022;-65
2022/10/16 06:33:37;;;;;;;4.85;1.08;;;;;;;17.54;84.75;100806.41;6250790;22;20020;-66
2022/10/16 06:36:12;;;;;;;4.18;1.00;;;;;;;17.50;86.56;100805.50;6277239;22;20027;-66
2022/10/16 06:38:39;;;;;;;3.50;1.10;;;;;;;17.31;85.08;100797.78;6277443;22;20022;-66
2022/10/16 06:41:07;;;;;;;3.72;1.17;;;;;;;17.35;87.45;100793.13;6250924;22;20016;-66
2022/10/16 06:43:35;;;;;;;1.63;0.80;;;;;;;17.21;87.50;100803.09;6279296;22;20023;-66
2022/10/16 06:46:03;;;;;;;4.65;1.40;;;;;;;17.47;87.93;100809.78;6252263;22;20023;-65
2022/10/16 06:48:31;;;;;;;4.68;1.05;;;;;;;17.68;87.88;100807.56;6252441;22;20016;-66
2022/10/16 06:51:03;;;;;;;5.88;1.10;;;;;;;17.81;86.84;100814.69;6251297;22;20018;-67
2022/10/16 06:53:37;;;;;;;4.63;1.20;;;;;;;17.70;86.84;100819.16;6254267;22;20015;-66
2022/10/16 06:56:16;;;;;;;5.05;1.08;;;;;;;17.74;86.17;100830.41;6254804;22;20026;-66
2022/10/16 06:58:44;;;;;;;18.92;12.40;;;;;;;17.81;85.70;100831.41;6279365;22;20019;-65
2022/10/16 07:01:12;;;;;;;9.95;5.18;;;;;;;17.75;85.76;100837.59;6252518;22;20022;-65
2022/10/16 07:03:41;;;;;;;7.43;1.80;;;;;;;17.65;86.55;100836.16;6252881;22;20020;-65
2022/10/16 07:06:10;;;;;;;15.57;9.95;;;;;;;17.83;85.80;100839.41;6278856;22;20035;-65
2022/10/16 07:08:40;;;;;;;9.25;4.55;;;;;;;17.90;84.87;100840.38;6250503;22;20174;-65
2022/10/16 07:11:09;;;;;;;7.73;1.80;;;;;;;17.89;85.33;100847.13;6278382;22;20030;-66
2022/10/16 07:13:38;;;;;;;3.97;1.65;;;;;;;18.01;85.25;100856.59;6279484;22;20069;-65
2022/10/16 07:16:09;;;;;;;4.40;1.27;;;;;;;18.06;84.74;100859.09;6278914;22;20020;-65
2022/10/16 07:18:36;;;;;;;;;;;;;;;17.86;85.01;100850.63;6279227;22;20042;-65
2022/10/16 07:21:08;;;;;;;4.72;1.10;;;;;;;17.92;85.77;100851.19;6279019;22;20353;-66
2022/10/16 07:23:35;;;;;;;2.70;1.00;;;;;;;18.01;85.22;100859.38;6251722;22;20023;-67
2022/10/16 07:26:03;;;;;;;2.45;1.25;;;;;;;17.92;84.63;100854.75;6278861;22;20020;-66
2022/10/16 07:28:31;;;;;;;3.80;0.95;;;;;;;17.86;85.13;100860.97;6226610;22;20015;-66
2022/10/16 07:31:07;;;;;;;3.63;1.33;;;;;;;17.81;85.40;100870.41;6226885;22;20026;-65
2022/10/16 07:33:35;;;;;;;3.80;0.95;;;;;;;17.91;85.12;100861.53;6252864;22;20309;-66
2022/10/16 07:36:02;;;;;;;3.47;0.95;;;;;;;18.07;85.26;100869.06;6227170;22;20016;-66
2022/10/16 07:38:30;;;;;;;2.53;0.88;;;;;;;17.86;82.25;100877.69;6279461;22;20023;-66
2022/10/16 07:40:58;;;;;;;6.30;0.98;;;;;;;17.80;84.23;100882.72;6251632;22;20011;-65
2022/10/16 07:43:29;;;;;;;4.63;2.50;;;;;;;18.05;85.09;100893.69;6279142;22;20030;-65
2022/10/16 07:45:56;;;;;;;8.85;4.43;;;;;;;18.13;84.12;100898.31;6251678;22;20042;-64
2022/10/16 07:48:29;;;;;;;6.82;3.83;;;;;;;17.93;83.42;100905.75;6278903;22;20019;-65
2022/10/16 07:51:03;;;;;;;3.72;1.60;;;;;;;17.90;82.33;100900.91;6250702;22;20015;-64
2022/10/16 07:53:31;;;;;;;2.90;1.40;;;;;;;18.02;81.71;100898.03;6278391;22;20022;-63
2022/10/16 07:56:04;;;;;;;4.80;2.70;;;;;;;17.80;81.45;100895.84;6278868;22;20022;-64
2022/10/16 07:58:32;;;;;;;6.43;2.42;;;;;;;17.60;82.83;100903.28;6278761;22;20029;-65
2022/10/16 08:01:04;;;;;;;5.50;1.83;;;;;;;17.62;84.55;100905.69;6278512;22;20012;-65
2022/10/16 08:03:31;;;;;;;5.65;2.08;;;;;;;17.73;86.63;100910.38;6252096;22;20023;-65
2022/10/16 08:05:59;;;;;;;8.38;1.73;;;;;;;17.64;84.08;100920.88;6278906;22;20015;-64
2022/10/16 08:08:27;;;;;;;6.32;1.85;;;;;;;17.87;86.06;100921.91;6251241;22;20030;-65
2022/10/16 08:10:55;;;;;;;3.92;1.40;;;;;;;18.14;85.98;100922.22;6278516;22;20011;-65
2022/10/16 08:13:22;;;;;;;6.30;1.50;;;;;;;17.99;83.30;100930.19;6279294;22;20577;-64
2022/10/16 08:15:49;;;;;;;3.15;1.40;;;;;;;17.99;83.65;100927.41;6277495;22;20353;-65
2022/10/16 08:18:16;;;;;;;5.93;1.55;;;;;;;17.88;82.13;100923.56;6252216;22;20020;-65
2022/10/16 08:20:44;;;;;;;6.80;1.50;;;;;;;17.79;82.45;100922.91;6225969;22;20016;-65
2022/10/16 08:23:13;;;;;;;3.65;1.40;;;;;;;17.96;82.87;100919.78;6278757;22;20016;-64
2022/10/16 08:25:41;;;;;;;4.65;1.58;;;;;;;18.18;84.10;100931.50;6278484;22;20035;-65
2022/10/16 08:28:10;;;;;;;4.47;1.88;;;;;;;18.07;82.17;100916.44;6277805;22;20336;-65
2022/10/16 08:30:37;;;;;;;6.13;1.35;;;;;;;18.20;83.27;100929.94;6251439;22;20020;-64
2022/10/16 08:33:06;;;;;;;2.92;1.10;;;;;;;18.22;83.21;100927.63;6262101;22;20023;-64
2022/10/16 08:35:33;;;;;;;3.95;1.42;;;;;;;18.20;81.78;100929.94;6278831;22;20011;-65
2022/10/16 08:38:06;;;;;;;3.78;1.55;;;;;;;18.40;82.10;100928.91;6226002;22;20459;-66
2022/10/16 08:40:34;;;;;;;7.47;1.75;;;;;;;18.02;80.44;100925.91;6278620;22;20458;-65
2022/10/16 08:43:20;;;;;;;5.78;1.60;;;;;;;17.88;82.96;100931.91;6250662;22;20099;-65
2022/10/16 08:45:48;;;;;;;3.92;1.48;;;;;;;17.98;82.71;100931.38;6250267;22;20035;-65
2022/10/16 08:48:30;;;;;;;3.65;1.60;;;;;;;18.02;82.07;100937.06;6276989;22;20023;-66
2022/10/16 08:50:57;;;;;;;9.80;1.80;;;;;;;18.18;82.84;100934.28;6225215;22;20011;-65
2022/10/16 08:53:31;;;;;;;6.32;1.80;;;;;;;18.47;80.97;100931.88;6249947;22;20037;-67
2022/10/16 08:55:58;;;;;;;3.25;1.38;;;;;;;18.42;80.03;100934.13;6276727;22;20026;-65
2022/10/16 08:58:28;;;;;;;6.07;1.38;;;;;;;18.41;81.12;100933.31;6250560;22;20026;-66
2022/10/16 09:01:00;;;;;;;6.00;1.50;;;;;;;18.40;80.16;100937.28;6225016;22;20012;-66
2022/10/16 09:03:55;;;;;;;3.88;1.50;;;;;;;18.53;81.29;100940.78;6276243;22;20018;-68
2022/10/16 09:06:35;;;;;;;3.80;1.45;;;;;;;18.52;81.79;100939.16;6276681;22;20347;-69
2022/10/16 09:09:13;;;;;;;6.20;3.60;;;;;;;18.72;80.37;100938.88;6197764;22;20288;-66
2022/10/16 09:11:49;;;;;;;5.88;2.05;;;;;;;18.42;81.32;100956.44;6249206;22;20016;-66
2022/10/16 09:14:39;;;;;;;4.90;1.63;;;;;;;18.65;80.51;100955.44;6248787;22;20580;-66
2022/10/16 09:17:18;;;;;;;5.57;1.92;;;;;;;18.62;79.86;100944.22;6277662;22;20020;-65
2022/10/16 09:19:55;;;;;;;4.47;2.38;;;;;;;18.60;79.57;100932.59;6250060;22;20016;-64
2022/10/16 09:22:26;;;;;;;6.18;2.70;;;;;;;18.66;79.85;100933.91;6276809;22;20022;-64
2022/10/16 09:24:55;;;;;;;7.95;2.35;;;;;;;18.63;79.66;100934.66;6278508;22;20323;-65
2022/10/16 09:27:22;;;;;;;5.05;2.33;;;;;;;18.59;79.84;100939.31;6225352;22;20019;-67
2022/10/16 09:29:51;;;;;;;8.43;3.38;;;;;;;18.60;79.28;100935.38;6250538;22;20034;-70
2022/10/16 09:32:25;;;;;;;5.95;2.88;;;;;;;18.78;78.91;100951.38;6275236;22;20012;-69
2022/10/16 09:34:56;;;;;;;6.20;2.38;;;;;;;18.86;78.32;100939.19;6277584;22;20016;-69
2022/10/16 09:37:23;;;;;;;;;;;;;;;18.85;78.07;100947.94;6251791;22;20023;-68
2022/10/16 09:39:53;;;;;;;4.63;2.10;;;;;;;18.95;77.32;100948.16;6251199;22;19922;-69
2022/10/16 09:42:23;;;;;;;4.70;2.00;;;;;;;19.06;77.44;100954.00;6277176;22;20011;-68
2022/10/16 09:44:53;;;;;;;6.22;1.98;;;;;;;19.29;75.16;100963.31;6274085;22;20027;-68
2022/10/16 09:47:23;;;;;;;9.23;2.00;;;;;;;19.43;74.63;100954.44;6221962;22;20019;-66
2022/10/16 09:49:52;;;;;;;2.65;1.80;;;;;;;19.57;73.30;100949.97;6275781;22;20344;-66
2022/10/16 09:52:19;;;;;;;3.22;1.60;;;;;;;19.30;74.46;100948.19;6249395;22;20455;-67
2022/10/16 09:55:14;;;;;;;3.47;1.60;;;;;;;19.08;74.91;100941.31;6250661;22;20023;-66
2022/10/16 09:57:54;;;;;;;3.08;1.65;;;;;;;19.39;74.53;100939.59;6248835;22;20015;-66
2022/10/16 10:00:22;;;;;;;;;;;;;;;19.47;73.39;100933.81;6250201;22;20055;-68
2022/10/16 10:02:49;;;;;;;3.38;1.63;;;;;;;19.44;73.12;100928.94;6249355;22;19919;-68
2022/10/16 10:05:21;;;;;;;6.45;1.65;;;;;;;19.06;73.97;100926.09;6249593;22;20026;-66
2022/10/16 10:08:05;;;;;;;5.50;1.67;;;;;;;19.29;73.65;100924.19;6224427;22;20016;-66
2022/10/16 10:10:39;;;;;;;2.83;1.15;;;;;;;19.32;72.23;100917.13;6276040;22;20016;-67
2022/10/16 10:13:18;;;;;;;2.05;1.33;;;;;;;19.31;72.53;100915.47;6223145;22;20119;-66
2022/10/16 10:15:46;;;;;;;3.95;1.27;;;;;;;19.42;72.87;100919.31;6250333;22;20027;-66
2022/10/16 10:18:22;;;;;;;4.13;1.30;;;;;;;19.59;71.95;100910.47;6252119;22;20027;-67
2022/10/16 10:21:00;;;;;;;5.03;1.40;;;;;;;19.68;72.21;100911.84;6250038;22;20027;-66
2022/10/16 10:23:30;;;;;;;3.60;1.48;;;;;;;19.45;71.93;100911.00;6246872;22;20016;-68
2022/10/16 10:26:15;;;;;;;4.00;1.70;;;;;;;19.15;72.30;100911.91;6233279;22;20042;-68
2022/10/16 10:28:56;;;;;;;3.20;1.77;;;;;;;19.51;72.21;100919.91;6223566;22;20027;-65
2022/10/16 10:31:43;;;;;;;4.85;1.65;;;;;;;19.53;71.07;100917.53;6273842;22;20026;-66
2022/10/16 10:34:38;;;;;;;6.75;2.53;;;;;;;19.72;70.62;100915.53;6248909;22;20125;-65
2022/10/16 10:37:24;;;;;;;4.18;1.70;;;;;;;19.85;70.26;100917.00;6275611;22;20027;-66
2022/10/16 10:40:08;;;;;;;3.20;1.50;;;;;;;19.37;70.88;100914.03;6275513;22;20023;-63
2022/10/16 10:43:00;;;;;;;4.03;1.50;;;;;;;19.03;72.65;100912.84;6246095;22;20031;-66
2022/10/16 10:45:43;;;;;;;2.90;1.20;;;;;;;19.08;72.82;100910.59;6248374;22;20331;-67
2022/10/16 10:48:39;;;;;;;3.80;1.25;;;;;;;19.03;73.48;100922.06;6274629;22;20700;-67
2022/10/16 10:51:43;;;;;;;3.30;1.25;;;;;;;19.29;72.23;100923.38;6224201;22;20020;-67
2022/10/16 10:54:17;;;;;;;4.60;1.30;;;;;;;19.48;71.22;100913.06;6258219;22;20024;-68
2022/10/16 10:56:55;;;;;;;4.80;1.13;;;;;;;19.60;70.99;100907.31;6222592;22;20348;-67
2022/10/16 10:59:46;;;;;;;3.13;0.90;;;;;;;19.52;71.19;100907.53;6249031;22;20028;-68
2022/10/16 11:02:36;;;;;;;3.35;1.10;;;;;;;19.75;70.85;100909.19;6273615;22;20019;-69
2022/10/16 11:05:22;;;;;;;;;;;;;;;19.79;71.23;100895.28;6231783;22;20024;-67
2022/10/16 11:07:49;;;;;;;1.75;0.90;;;;;;;19.20;73.68;100898.47;6275457;22;20354;-68
2022/10/16 11:10:22;;;;;;;2.17;1.20;;;;;;;19.43;73.98;100896.59;6273553;22;20019;-68
2022/10/16 11:12:54;;;;;;;5.45;2.03;;;;;;;19.38;73.98;100902.47;6222067;22;20026;-69
2022/10/16 11:15:28;;;;;;;3.45;1.33;;;;;;;19.31;74.56;100902.34;6247966;22;20034;-68
2022/10/16 11:18:19;;;;;;;3.03;1.02;;;;;;;19.48;74.74;100901.88;6247092;22;20020;-71
2022/10/16 11:21:06;;;;;;;2.75;1.45;;;;;;;19.70;73.87;100901.09;6273860;22;20019;-68
2022/10/16 11:23:41;;;;;;;3.55;1.30;;;;;;;19.83;73.61;100885.78;6223696;22;20015;-68
2022/10/16 11:26:15;;;;;;;3.78;1.48;;;;;;;20.15;72.94;100895.53;6274726;22;20031;-69
2022/10/16 11:28:48;;;;;;;2.72;1.20;;;;;;;20.29;71.97;100888.63;6275711;22;20029;-67
2022/10/16 11:31:18;;;;;;;2.42;0.90;;;;;;;20.05;71.94;100890.59;6247766;22;20483;-66
2022/10/16 11:33:57;;;;;;;2.80;1.10;;;;;;;20.06;71.34;100897.00;6275063;22;20410;-69
2022/10/16 11:36:37;;;;;;;3.08;1.10;;;;;;;19.96;72.01;100884.41;6275113;22;20022;-67
2022/10/16 11:39:22;;;;;;;3.88;1.50;;;;;;;20.33;70.80;100886.69;6248330;22;20392;-68
2022/10/16 11:42:08;;;;;;;3.78;1.05;;;;;;;20.29;70.69;100885.81;6246959;22;20020;-65
2022/10/16 11:44:44;;;;;;;3.22;1.10;;;;;;;20.05;71.17;100878.56;6276489;22;20023;-66
2022/10/16 11:47:29;;;;;;;3.92;1.30;;;;;;;20.39;71.03;100872.00;6273837;22;20016;-69